Cross Lake Township, Maine
Current Conditions -  °F | °C
As of 7:53 PM on Wednesday 22 Oct 2014 (Local Time) from KFVE Reporting Station
Clear Clear  
Wind Chill: 36°   Ceiling: Unl
Heat Index: 42°   Visibility: 10mi
Dew Point: 32°   Wind: 10mph
Humidity: 67%   Direction: 30°NNE
Pressure: 30.33"   Gusts: 21mph
Location:  47.1619°N, 68.2532°W
Report Text: KFVE 222353Z AUTO 03009G18KT 10SM CLR 06/00 A3033 RMK AO2 SLP280 T00560000 10089 20056 58006
Loading
Personal Weather Stations






























Interactive Weather Map
Tropical Storm Tracking
New forecast layout! Learn more

10-Day Weather Forecast

Advertisements
Track Severe Weather on mobile